KCQT

Los Angeles / USC Campus Downtown Airport

Los Angeles, California, USA
METAR KCQT 140447Z AUTO 00000KT 10SM CLR 16/00 A3025 RMK AO2 SLP243 T01610000 $
Observed Flight Rules
Nov-14 @ 04:47 UTC (33 minutes ago) Visual Flight Rules
Visibility Clouds
10 miles
  • Clear skies
Temperatures Readings
Current 16°C / 61°F
Dewpoint 0°C / 32°F
Humidity 34%
Altimeter 30.25" Hg
Pressure 1024.3 hPa
Elevation 56
METAR KCQT 140447Z AUTO 00000KT 10SM CLR 16/00 A3025 RMK AO2 SLP243 T01610000 $
Observed Flight Rules
Nov-14 @ 04:47 UTC
(33 minutes ago)
VFR
Clouds
  • Clear skies
Temperature Dewpoint
16°C / 61°F 0°C / 32°F
Humidity Altimeter Pressure
34% 30.25" Hg 1024.3 hPa